Time;durP1;ratioP1;P1;durP2;ratioP2;P2;SDS_P1;SDS_P2;PMS_P1;PMS_P2;Temp;Humidity;BMP_temperature;BMP_pressure;BME280_temperature;BME280_humidity;BME280_pressure;Samples;Min_cycle;Max_cycle;Signal;HPM_P1;HPM_P2
2022/08/26 00:02:05;;;;;;;11.23;3.83;;;;;;;17.89;100.00;92843.22;5111905;28;20407;-73
2022/08/26 00:04:33;;;;;;;10.20;3.95;;;;;;;17.89;100.00;92842.44;5111814;28;20043;-73
2022/08/26 00:07:00;;;;;;;10.15;3.58;;;;;;;17.89;100.00;92847.63;5111238;28;20040;-73
2022/08/26 00:09:26;;;;;;;7.32;3.55;;;;;;;17.91;100.00;92840.34;5111388;28;20052;-73
2022/08/26 00:11:54;;;;;;;8.57;3.85;;;;;;;17.90;100.00;92843.97;5111678;28;20108;-73
2022/08/26 00:14:23;;;;;;;11.93;5.38;;;;;;;17.88;100.00;92844.25;5111457;28;20089;-73
2022/08/26 00:16:50;;;;;;;7.05;3.88;;;;;;;17.82;100.00;92842.69;5111420;28;20054;-73
2022/08/26 00:19:18;;;;;;;10.75;4.25;;;;;;;17.83;100.00;92846.84;5111585;28;20601;-73
2022/08/26 00:21:45;;;;;;;6.07;4.00;;;;;;;17.82;100.00;92842.69;5111358;28;20048;-73
2022/08/26 00:24:12;;;;;;;8.43;3.75;;;;;;;17.81;100.00;92835.19;5111070;28;20134;-73
2022/08/26 00:26:39;;;;;;;9.70;4.43;;;;;;;17.78;100.00;92839.09;5111348;28;20036;-74
2022/08/26 00:29:06;;;;;;;14.32;4.30;;;;;;;17.80;100.00;92836.22;5111295;28;20047;-73
2022/08/26 00:31:34;;;;;;;11.43;4.10;;;;;;;17.79;100.00;92834.66;5111218;28;20040;-73
2022/08/26 00:34:01;;;;;;;9.88;4.53;;;;;;;17.70;100.00;92837.81;5110829;28;20479;-73
2022/08/26 00:36:28;;;;;;;8.45;3.40;;;;;;;17.66;100.00;92835.97;5110982;28;20495;-73
2022/08/26 00:38:54;;;;;;;12.68;4.53;;;;;;;17.59;100.00;92834.44;5111174;28;20066;-73
2022/08/26 00:41:21;;;;;;;7.38;3.70;;;;;;;17.50;100.00;92828.22;5111079;28;20540;-74
2022/08/26 00:43:48;;;;;;;9.68;3.70;;;;;;;17.48;100.00;92830.28;5111001;28;20047;-73
2022/08/26 00:46:19;;;;;;;7.78;3.85;;;;;;;17.41;100.00;92827.19;5110780;28;20040;-73
2022/08/26 00:48:52;;;;;;;12.02;4.25;;;;;;;17.38;100.00;92825.91;5111124;28;20043;-73
2022/08/26 00:51:22;;;;;;;11.75;4.90;;;;;;;17.33;100.00;92829.28;5110626;28;20101;-73
2022/08/26 00:53:53;;;;;;;8.25;3.70;;;;;;;17.38;100.00;92836.28;5110748;28;20536;-73
2022/08/26 00:56:25;;;;;;;12.57;4.60;;;;;;;17.33;100.00;92826.69;5110779;28;20073;-72
2022/08/26 00:58:52;;;;;;;14.25;4.20;;;;;;;17.30;100.00;92822.00;5111062;28;20043;-73
2022/08/26 01:01:19;;;;;;;11.55;3.83;;;;;;;17.32;100.00;92827.72;5110392;28;20044;-74
2022/08/26 01:03:48;;;;;;;9.43;3.88;;;;;;;17.32;100.00;92830.31;5110490;28;20039;-73
2022/08/26 01:06:16;;;;;;;6.15;3.58;;;;;;;17.29;100.00;92824.84;5110704;28;20467;-73
2022/08/26 01:08:43;;;;;;;10.32;5.00;;;;;;;17.26;100.00;92828.75;5111124;28;20089;-72
2022/08/26 01:11:12;;;;;;;7.18;3.85;;;;;;;17.21;100.00;92826.94;5110558;28;20414;-73
2022/08/26 01:13:39;;;;;;;10.70;4.43;;;;;;;17.17;100.00;92818.13;5110542;28;20485;-73
2022/08/26 01:16:10;;;;;;;8.02;3.75;;;;;;;17.19;100.00;92820.47;5110361;28;20042;-73
2022/08/26 01:18:37;;;;;;;16.13;4.47;;;;;;;17.15;100.00;92822.00;5110701;28;20047;-73
2022/08/26 01:21:16;;;;;;;11.70;3.40;;;;;;;17.11;100.00;92823.59;5110588;28;20052;-73
2022/08/26 01:23:47;;;;;;;10.38;3.97;;;;;;;17.07;100.00;92818.13;5110604;28;20039;-73
2022/08/26 01:26:18;;;;;;;10.93;3.75;;;;;;;17.09;100.00;92829.03;5110354;28;20051;-73
2022/08/26 01:28:46;;;;;;;11.43;3.88;;;;;;;17.10;100.00;92822.78;5110263;28;20044;-73
2022/08/26 01:31:16;;;;;;;17.33;4.32;;;;;;;17.10;100.00;92822.78;5109923;28;20093;-73
2022/08/26 01:33:52;;;;;;;15.18;4.97;;;;;;;17.05;100.00;92817.59;5110011;28;20054;-73
2022/08/26 01:36:19;;;;;;;12.10;4.55;;;;;;;17.06;100.00;92814.75;5110179;28;20445;-73
2022/08/26 01:38:47;;;;;;;8.77;3.65;;;;;;;16.99;100.00;92821.97;5109876;28;20100;-73
2022/08/26 01:41:15;;;;;;;8.10;3.33;;;;;;;17.09;100.00;92827.19;5110291;28;20039;-73
2022/08/26 01:43:45;;;;;;;9.55;3.75;;;;;;;17.08;100.00;92828.25;5109971;28;20051;-73
2022/08/26 01:46:13;;;;;;;10.38;3.53;;;;;;;17.03;100.00;92825.63;5110032;28;20047;-73
2022/08/26 01:48:42;;;;;;;8.27;4.10;;;;;;;17.07;100.00;92828.50;5109699;28;20536;-73
2022/08/26 01:51:11;;;;;;;10.73;4.38;;;;;;;17.00;100.00;92825.34;5109326;28;20527;-73
2022/08/26 01:53:40;;;;;;;10.25;3.80;;;;;;;16.95;100.00;92816.53;5109838;28;20451;-74
2022/08/26 01:56:10;;;;;;;14.95;3.80;;;;;;;16.93;100.00;92815.22;5109557;28;20490;-73
2022/08/26 01:58:41;;;;;;;7.65;4.25;;;;;;;16.91;100.00;92805.13;5109576;28;20040;-73
2022/08/26 02:01:08;;;;;;;6.63;3.85;;;;;;;16.89;100.00;92804.59;5109775;28;20163;-73
2022/08/26 02:03:39;;;;;;;6.18;3.95;;;;;;;16.90;100.00;92805.38;5109600;28;20044;-73
2022/08/26 02:06:08;;;;;;;9.82;4.50;;;;;;;16.87;100.00;92816.25;5109696;28;20048;-73
2022/08/26 02:08:39;;;;;;;13.75;3.97;;;;;;;16.81;100.00;92812.91;5109811;28;20063;-74
2022/08/26 02:11:08;;;;;;;10.65;3.60;;;;;;;16.70;100.00;92799.91;5109270;28;20055;-73
2022/08/26 02:13:39;;;;;;;13.80;4.25;;;;;;;16.84;100.00;92820.16;5109796;28;20517;-74
2022/08/26 02:16:08;;;;;;;11.13;3.50;;;;;;;16.76;100.00;92815.47;5109050;28;20063;-73
2022/08/26 02:18:38;;;;;;;8.77;3.78;;;;;;;16.76;100.00;92818.06;5109759;28;20043;-73
2022/08/26 02:21:05;;;;;;;14.07;4.75;;;;;;;16.73;100.00;92818.56;5109517;28;20046;-73
2022/08/26 02:23:32;;;;;;;11.45;4.03;;;;;;;16.65;100.00;92804.28;5109267;28;20060;-73
2022/08/26 02:26:05;;;;;;;9.02;3.42;;;;;;;16.53;100.00;92784.56;5109402;28;20100;-73
2022/08/26 02:28:40;;;;;;;10.20;3.78;;;;;;;16.70;100.00;92814.69;5109469;28;20048;-73
2022/08/26 02:31:07;;;;;;;9.20;4.00;;;;;;;16.70;100.00;92812.09;5109280;28;20442;-73
2022/08/26 02:33:35;;;;;;;9.63;3.83;;;;;;;16.65;100.00;92817.25;5109222;28;20043;-74
2022/08/26 02:36:01;;;;;;;13.02;4.57;;;;;;;16.67;100.00;92817.81;5108913;28;20492;-74
2022/08/26 02:38:29;;;;;;;12.70;4.05;;;;;;;16.68;100.00;92817.53;5109145;28;20058;-74
2022/08/26 02:40:55;;;;;;;6.30;3.92;;;;;;;16.59;100.00;92824.28;5109384;28;20127;-73
2022/08/26 02:43:22;;;;;;;12.18;3.72;;;;;;;16.53;100.00;92825.28;5109223;28;20058;-73
2022/08/26 02:45:50;;;;;;;9.63;3.97;;;;;;;16.51;100.00;92816.97;5109378;28;20048;-73
2022/08/26 02:48:20;;;;;;;8.90;3.17;;;;;;;16.51;100.00;92809.19;5109397;28;20105;-73
2022/08/26 02:50:47;;;;;;;8.70;4.22;;;;;;;16.45;100.00;92813.59;5108952;28;20116;-73
2022/08/26 02:53:15;;;;;;;7.65;4.03;;;;;;;16.37;100.00;92817.47;5109386;28;20044;-73
2022/08/26 02:55:42;;;;;;;10.20;3.95;;;;;;;16.43;100.00;92821.63;5109102;28;20047;-73
2022/08/26 02:58:10;;;;;;;10.40;4.38;;;;;;;16.37;100.00;92824.47;5108897;28;20047;-72
2022/08/26 03:00:37;;;;;;;11.25;4.60;;;;;;;16.35;100.00;92829.91;5109361;28;20134;-72
2022/08/26 03:03:05;;;;;;;9.75;3.95;;;;;;;16.23;100.00;92811.19;5108986;28;20043;-72
2022/08/26 03:05:32;;;;;;;11.05;5.65;;;;;;;16.37;100.00;92829.63;5109084;28;20047;-73
2022/08/26 03:07:59;;;;;;;10.68;3.90;;;;;;;16.34;100.00;92832.75;5108705;28;20108;-72
2022/08/26 03:10:26;;;;;;;7.95;4.00;;;;;;;16.35;100.00;92829.13;5108880;28;20051;-72
2022/08/26 03:12:53;;;;;;;10.15;4.22;;;;;;;16.24;100.00;92816.13;5109082;28;20044;-72
2022/08/26 03:15:20;;;;;;;12.00;3.85;;;;;;;16.29;100.00;92834.28;5108759;28;20044;-73
2022/08/26 03:17:47;;;;;;;8.52;4.05;;;;;;;16.26;100.00;92832.19;5109131;28;20051;-72
2022/08/26 03:20:16;;;;;;;13.65;4.05;;;;;;;16.18;100.00;92824.94;5108898;28;20506;-72
2022/08/26 03:22:43;;;;;;;7.28;3.90;;;;;;;16.19;100.00;92828.31;5109075;28;20096;-72
2022/08/26 03:25:13;;;;;;;9.82;4.80;;;;;;;16.12;100.00;92825.94;5108899;28;20081;-72
2022/08/26 03:27:39;;;;;;;9.93;4.53;;;;;;;16.11;100.00;92819.97;5109331;28;20048;-72
2022/08/26 03:32:52;;;;;;;6.30;3.85;;;;;;;16.10;100.00;92817.66;5112491;28;20132;-72
2022/08/26 03:35:21;;;;;;;12.00;4.43;;;;;;;16.10;100.00;92828.03;5112415;28;20449;-72
2022/08/26 03:37:47;;;;;;;9.05;4.13;;;;;;;16.08;100.00;92824.88;5098290;28;20044;-72
2022/08/26 03:40:14;;;;;;;10.45;4.25;;;;;;;16.03;100.00;92813.47;5112590;28;20093;-72
2022/08/26 03:42:43;;;;;;;6.28;3.85;;;;;;;16.12;100.00;92818.94;5111949;28;20577;-72
2022/08/26 03:45:12;;;;;;;13.00;4.65;;;;;;;16.06;100.00;92814.75;5112239;28;20058;-72
2022/08/26 03:47:39;;;;;;;12.45;4.53;;;;;;;16.13;100.00;92825.69;5097681;28;20040;-72
2022/08/26 03:50:09;;;;;;;13.57;4.43;;;;;;;16.09;100.00;92821.25;5112229;28;20133;-72
2022/08/26 03:52:37;;;;;;;9.77;4.30;;;;;;;16.05;100.00;92826.16;5097781;28;20104;-72
2022/08/26 03:55:06;;;;;;;8.93;3.90;;;;;;;16.02;100.00;92821.50;5096229;28;20043;-72
2022/08/26 03:57:33;;;;;;;17.52;5.30;;;;;;;16.01;100.00;92820.72;5094283;28;20046;-72
2022/08/26 03:59:59;;;;;;;8.75;4.03;;;;;;;16.00;100.00;92820.97;5091055;28;20048;-72
2022/08/26 04:02:27;;;;;;;12.13;4.63;;;;;;;15.90;100.00;92806.13;5091133;28;20090;-72
2022/08/26 04:04:54;;;;;;;12.88;4.38;;;;;;;16.01;100.00;92817.34;5092145;28;20093;-72
2022/08/26 04:07:20;;;;;;;13.25;4.90;;;;;;;15.94;100.00;92817.59;5103062;28;20044;-72
2022/08/26 04:09:48;;;;;;;10.45;4.40;;;;;;;15.97;100.00;92811.88;5106584;28;20047;-72
2022/08/26 04:12:16;;;;;;;11.40;4.32;;;;;;;15.99;100.00;92819.41;5107909;28;20544;-72
2022/08/26 04:14:42;;;;;;;15.25;3.97;;;;;;;16.00;100.00;92818.38;5100016;28;20043;-72
2022/08/26 04:17:10;;;;;;;12.20;4.05;;;;;;;16.00;100.00;92818.38;5111722;28;20050;-72
2022/08/26 04:19:37;;;;;;;10.63;4.40;;;;;;;16.02;100.00;92814.50;5111616;28;20045;-72
2022/08/26 04:22:04;;;;;;;14.15;4.18;;;;;;;16.03;100.00;92818.63;5102585;28;20059;-72
2022/08/26 04:24:31;;;;;;;11.07;4.85;;;;;;;16.01;100.00;92822.50;5095959;28;20438;-72
2022/08/26 04:27:02;;;;;;;15.20;5.13;;;;;;;15.86;100.00;92813.63;5111184;28;20217;-72
2022/08/26 04:29:29;;;;;;;14.05;4.10;;;;;;;16.02;100.00;92817.09;5111319;28;20395;-72
2022/08/26 04:31:57;;;;;;;15.55;6.13;;;;;;;16.07;100.00;92823.31;5111102;28;20051;-72
2022/08/26 04:34:26;;;;;;;11.88;4.88;;;;;;;16.09;100.00;92821.25;5111538;28;20054;-73
2022/08/26 04:36:52;;;;;;;12.57;5.10;;;;;;;16.08;100.00;92817.91;5111105;28;20047;-73
2022/08/26 04:39:20;;;;;;;13.50;5.28;;;;;;;16.16;100.00;92814.03;5104865;28;20096;-72
2022/08/26 04:41:48;;;;;;;12.63;5.18;;;;;;;16.19;100.00;92810.16;5111260;28;20097;-73
2022/08/26 04:44:17;;;;;;;12.75;4.60;;;;;;;16.31;100.00;92818.50;5111317;28;20047;-72
2022/08/26 04:46:44;;;;;;;17.80;7.60;;;;;;;16.41;100.00;92818.53;5094615;28;20054;-72
2022/08/26 04:49:11;;;;;;;18.45;6.03;;;;;;;16.50;100.00;92823.19;5106378;28;20043;-72
2022/08/26 04:51:39;;;;;;;11.30;5.28;;;;;;;16.58;100.00;92814.94;5110622;28;20066;-72
2022/08/26 04:54:06;;;;;;;13.57;5.20;;;;;;;16.66;100.00;92816.25;5110950;28;20113;-73
2022/08/26 04:56:36;;;;;;;19.52;5.57;;;;;;;16.73;100.00;92816.78;5111004;28;20406;-72
2022/08/26 04:59:04;;;;;;;14.30;5.43;;;;;;;16.80;100.00;92822.47;5109100;28;20044;-72
2022/08/26 05:01:33;;;;;;;17.50;5.97;;;;;;;16.85;100.00;92828.72;5110818;28;20048;-72
2022/08/26 05:04:01;;;;;;;13.23;4.50;;;;;;;16.93;100.00;92826.38;5110321;28;20120;-73
2022/08/26 05:06:28;;;;;;;16.85;5.63;;;;;;;16.97;100.00;92829.25;5110300;28;20043;-72
2022/08/26 05:08:54;;;;;;;8.68;4.88;;;;;;;17.06;100.00;92824.34;5110615;28;20093;-73
2022/08/26 05:11:21;;;;;;;13.90;4.40;;;;;;;17.13;100.00;92831.88;5094480;28;20052;-74
2022/08/26 05:13:48;;;;;;;18.50;5.65;;;;;;;17.18;100.00;92827.44;5099564;28;20054;-73
2022/08/26 05:16:16;;;;;;;16.30;5.15;;;;;;;17.27;100.00;92832.91;5110182;28;20414;-73
2022/08/26 05:18:44;;;;;;;13.32;4.80;;;;;;;17.33;100.00;92839.66;5110427;28;20044;-73
2022/08/26 05:21:18;;;;;;;13.18;4.85;;;;;;;17.46;100.00;92832.38;5110250;28;20079;-73
2022/08/26 05:23:45;;;;;;;13.50;5.80;;;;;;;17.58;100.00;92838.06;5110018;28;20143;-73
2022/08/26 05:26:12;;;;;;;12.82;4.75;;;;;;;17.66;100.00;92838.56;5110069;28;20039;-73
2022/08/26 05:28:39;;;;;;;12.90;4.93;;;;;;;17.76;100.00;92841.16;5109815;28;20089;-73
2022/08/26 05:31:13;;;;;;;14.27;4.85;;;;;;;17.86;100.00;92845.53;5110359;28;20447;-74
2022/08/26 05:33:40;;;;;;;11.48;4.75;;;;;;;17.96;100.00;92842.16;5110027;28;20043;-73
2022/08/26 05:36:10;;;;;;;15.05;5.03;;;;;;;18.05;100.00;92845.75;5110276;28;20043;-73
2022/08/26 05:38:38;;;;;;;12.57;5.15;;;;;;;18.16;100.00;92842.09;5109940;28;20040;-73
2022/08/26 05:41:13;;;;;;;10.57;4.43;;;;;;;18.26;100.00;92850.91;5110163;28;20441;-73
2022/08/26 05:43:40;;;;;;;15.30;5.35;;;;;;;18.32;100.00;92851.69;5109777;28;20058;-73
2022/08/26 05:46:07;;;;;;;14.68;4.25;;;;;;;18.32;100.00;92851.69;5110020;28;20035;-73
2022/08/26 05:48:34;;;;;;;18.90;6.20;;;;;;;18.40;100.00;92853.72;5109964;28;20054;-73
2022/08/26 05:51:04;;;;;;;12.20;5.15;;;;;;;18.42;100.00;92846.41;5108777;28;20047;-73
2022/08/26 05:53:33;;;;;;;12.82;4.97;;;;;;;18.41;100.00;92835.25;5109836;28;20055;-73
2022/08/26 05:56:00;;;;;;;17.08;5.28;;;;;;;18.60;100.00;92852.06;5109741;28;20145;-73
2022/08/26 05:58:28;;;;;;;14.38;6.75;;;;;;;18.54;100.00;92840.91;5109633;28;20050;-73
2022/08/26 06:01:00;;;;;;;14.13;6.40;;;;;;;18.48;100.00;92852.38;5106469;28;20097;-74
2022/08/26 06:03:28;;;;;;;19.02;8.55;;;;;;;18.40;100.00;92841.50;5109611;28;20123;-74
2022/08/26 06:05:55;;;;;;;13.70;6.72;;;;;;;18.40;100.00;92848.53;5109474;28;20054;-74
2022/08/26 06:08:22;;;;;;;15.15;7.75;;;;;;;18.43;100.00;92848.00;5109646;28;20135;-74
2022/08/26 06:10:52;;;;;;;17.40;6.53;;;;;;;18.51;100.00;92847.41;5109937;28;20043;-74
2022/08/26 06:13:21;;;;;;;16.30;6.75;;;;;;;18.26;100.00;92845.72;5104592;28;20528;-74
2022/08/26 06:15:51;;;;;;;14.52;5.80;;;;;;;18.34;100.00;92847.78;5109860;28;20070;-74
2022/08/26 06:18:20;;;;;;;15.20;5.90;;;;;;;18.53;100.00;92852.38;5109521;28;20043;-74
2022/08/26 06:20:48;;;;;;;15.43;5.65;;;;;;;18.62;100.00;92840.38;5109555;28;20491;-74
2022/08/26 06:26:03;;;;;;;15.20;5.63;;;;;;;18.98;100.00;92844.53;5109209;28;20059;-74
2022/08/26 06:28:30;;;;;;;11.73;4.93;;;;;;;19.22;100.00;92846.50;5109096;28;20488;-74
2022/08/26 06:30:57;;;;;;;21.38;5.72;;;;;;;19.47;100.00;92839.53;5109231;28;20570;-73
2022/08/26 06:33:26;;;;;;;18.30;5.88;;;;;;;19.63;100.00;92859.19;5109432;28;20096;-73
2022/08/26 06:35:53;;;;;;;19.40;6.40;;;;;;;19.68;100.00;92847.94;5109062;28;20091;-73
2022/08/26 06:38:20;;;;;;;16.23;6.13;;;;;;;19.94;100.00;92859.94;5109408;28;20040;-73
2022/08/26 06:40:49;;;;;;;14.10;5.90;;;;;;;19.96;100.00;92863.03;5109329;28;20051;-74
2022/08/26 06:43:19;;;;;;;19.73;5.70;;;;;;;19.94;100.00;92852.13;5109088;28;20044;-74
2022/08/26 06:45:46;;;;;;;24.75;7.25;;;;;;;19.88;100.00;92841.75;5109382;28;20184;-74
2022/08/26 06:48:14;;;;;;;25.60;8.13;;;;;;;19.79;100.00;92851.22;5109363;28;20043;-73
2022/08/26 06:50:42;;;;;;;15.18;5.43;;;;;;;19.52;100.00;92852.50;5108894;28;20055;-73
2022/08/26 06:53:09;;;;;;;23.65;6.60;;;;;;;19.42;100.00;92845.56;5109258;28;20058;-74
2022/08/26 06:55:40;;;;;;;17.92;6.68;;;;;;;19.74;100.00;92844.25;5109046;28;20093;-73
2022/08/26 06:58:08;;;;;;;19.52;6.32;;;;;;;20.16;100.00;92860.25;5109171;28;20133;-73
2022/08/26 07:00:36;;;;;;;16.23;5.85;;;;;;;20.45;100.00;92850.78;5106024;28;20120;-74
2022/08/26 07:03:05;;;;;;;21.77;6.03;;;;;;;20.74;100.00;92854.34;5111876;28;20044;-74
2022/08/26 07:05:32;;;;;;;16.05;5.50;;;;;;;20.93;100.00;92849.16;5113255;28;20054;-74
2022/08/26 07:07:59;;;;;;;12.52;5.32;;;;;;;21.32;100.00;92855.09;5112823;28;20056;-74
2022/08/26 07:10:27;;;;;;;21.80;5.45;;;;;;;21.63;100.00;92855.38;5112919;28;20491;-74
2022/08/26 07:12:54;;;;;;;17.08;5.40;;;;;;;21.86;100.00;92850.28;5108048;28;20047;-74
2022/08/26 07:15:20;;;;;;;22.30;5.65;;;;;;;22.21;100.00;92862.25;5112645;28;20487;-74
2022/08/26 07:17:49;;;;;;;19.13;5.13;;;;;;;22.42;100.00;92870.47;5112780;28;20044;-74
2022/08/26 07:20:16;;;;;;;15.45;3.78;;;;;;;22.20;90.50;92885.00;5112531;28;20043;-74
2022/08/26 07:22:43;;;;;;;10.13;4.57;;;;;;;22.37;91.93;92873.97;5112549;28;20051;-74
2022/08/26 07:25:10;;;;;;;11.15;3.58;;;;;;;22.57;90.59;92873.88;5112652;28;20421;-74
2022/08/26 07:27:38;;;;;;;14.82;3.40;;;;;;;22.60;85.50;92883.75;5112425;28;20050;-74
2022/08/26 07:30:06;;;;;;;11.75;3.38;;;;;;;22.51;84.70;92883.66;5103985;28;20047;-74
2022/08/26 07:32:33;;;;;;;14.00;3.25;;;;;;;22.26;82.88;92878.63;5101436;28;20516;-75
2022/08/26 07:35:01;;;;;;;15.98;2.80;;;;;;;22.13;82.73;92877.53;5111184;28;20052;-74
2022/08/26 07:37:28;;;;;;;11.48;2.58;;;;;;;22.29;83.21;92874.63;5111971;28;20044;-74
2022/08/26 07:39:55;;;;;;;11.15;3.40;;;;;;;22.21;81.82;92872.72;5110628;28;20043;-75
2022/08/26 07:42:22;;;;;;;12.82;3.22;;;;;;;22.48;82.92;92869.31;5112101;28;20055;-74
2022/08/26 07:44:49;;;;;;;17.25;3.38;;;;;;;22.73;82.88;92874.34;5112066;28;20549;-74
2022/08/26 07:47:15;;;;;;;5.85;2.60;;;;;;;22.85;79.37;92877.22;5111982;28;20052;-75
2022/08/26 07:49:42;;;;;;;15.68;3.00;;;;;;;22.23;81.68;92879.22;5112070;28;20111;-75
2022/08/26 07:52:11;;;;;;;12.85;2.95;;;;;;;22.18;83.67;92866.22;5108866;28;20051;-75
2022/08/26 07:54:39;;;;;;;12.63;2.88;;;;;;;21.80;83.72;92874.97;5097000;28;20132;-76
2022/08/26 07:57:10;;;;;;;14.13;2.88;;;;;;;21.76;83.02;92882.63;5108524;28;20044;-75
2022/08/26 07:59:37;;;;;;;11.70;3.33;;;;;;;21.79;84.38;92875.28;5103787;28;20555;-75
2022/08/26 08:02:04;;;;;;;19.95;3.25;;;;;;;21.65;82.33;92873.38;5097206;28;20462;-76
2022/08/26 08:04:33;;;;;;;10.88;3.38;;;;;;;21.58;85.01;92876.34;5109541;28;20486;-76
2022/08/26 08:07:00;;;;;;;8.00;3.05;;;;;;;21.64;84.53;92864.00;5109601;28;20050;-76
2022/08/26 08:09:32;;;;;;;8.07;3.38;;;;;;;21.61;85.41;92872.41;5108295;28;20047;-76
2022/08/26 08:11:59;;;;;;;11.52;3.08;;;;;;;21.63;84.28;92876.28;5102076;28;20537;-76
2022/08/26 08:14:26;;;;;;;11.25;3.10;;;;;;;21.59;84.74;92872.72;5109833;28;20064;-75
2022/08/26 08:16:53;;;;;;;12.98;3.55;;;;;;;21.59;85.89;92877.94;5111878;28;20588;-75
2022/08/26 08:19:19;;;;;;;12.70;3.22;;;;;;;21.66;86.63;92868.94;5111453;28;20518;-75
2022/08/26 08:21:46;;;;;;;12.63;3.67;;;;;;;22.05;85.88;92869.59;5111546;28;20511;-77
2022/08/26 08:24:13;;;;;;;10.90;3.63;;;;;;;22.38;86.49;92865.06;5111692;28;20067;-75
2022/08/26 08:26:41;;;;;;;14.38;3.65;;;;;;;22.70;85.47;92862.59;5111337;28;20078;-75
2022/08/26 08:29:08;;;;;;;10.32;2.80;;;;;;;22.87;77.67;92866.44;5111675;28;20109;-76
2022/08/26 08:31:35;;;;;;;8.75;2.65;;;;;;;22.76;77.65;92879.75;5111509;28;20040;-76
2022/08/26 08:34:02;;;;;;;12.88;4.10;;;;;;;22.76;77.08;92876.34;5111149;28;20043;-75
2022/08/26 08:36:30;;;;;;;8.65;2.35;;;;;;;22.79;75.78;92883.63;5111354;28;20043;-75
2022/08/26 08:38:57;;;;;;;11.85;3.30;;;;;;;22.67;76.94;92869.22;5111453;28;20051;-75
2022/08/26 08:41:37;;;;;;;12.55;3.25;;;;;;;22.83;76.72;92867.03;5111486;28;20044;-75
2022/08/26 08:44:13;;;;;;;13.55;2.72;;;;;;;22.79;77.23;92873.94;5111133;28;20048;-76
2022/08/26 08:46:41;;;;;;;;;;;;;;;23.12;70.97;92870.34;5111489;28;20112;-75
2022/08/26 08:49:09;;;;;;;13.35;3.03;;;;;;;23.33;71.24;92865.44;5111382;28;19927;-75
2022/08/26 08:51:44;;;;;;;8.60;2.45;;;;;;;23.27;66.34;92869.22;5111172;28;20509;-76
2022/08/26 08:54:11;;;;;;;9.18;3.97;;;;;;;23.47;69.49;92864.63;5111280;28;20062;-75
2022/08/26 08:56:42;;;;;;;13.50;3.33;;;;;;;23.67;65.76;92858.09;5110881;28;20054;-76
2022/08/26 08:59:16;;;;;;;13.38;2.50;;;;;;;23.96;69.58;92848.97;5107449;28;20069;-75
2022/08/26 09:01:58;;;;;;;9.50;2.47;;;;;;;24.13;62.18;92853.56;5111036;28;20047;-75
2022/08/26 09:05:01;;;;;;;12.70;2.80;;;;;;;24.54;65.53;92856.13;5110975;28;20039;-75
2022/08/26 09:07:31;;;;;;;9.40;3.13;;;;;;;24.42;61.20;92846.22;5110913;28;20483;-75
2022/08/26 09:10:01;;;;;;;10.35;3.15;;;;;;;24.51;60.95;92856.72;5110301;28;20083;-75
2022/08/26 09:12:30;;;;;;;8.68;3.72;;;;;;;24.50;62.06;92850.72;5108414;28;20043;-76
2022/08/26 09:15:03;;;;;;;11.43;3.10;;;;;;;24.53;60.61;92844.84;5108905;28;20454;-76
2022/08/26 09:17:43;;;;;;;12.25;3.75;;;;;;;24.40;60.32;92825.50;5110843;28;20441;-76
2022/08/26 09:20:32;;;;;;;9.93;2.83;;;;;;;24.26;60.37;92845.88;5110430;28;20580;-76
2022/08/26 09:22:59;;;;;;;12.38;3.42;;;;;;;24.42;61.25;92843.59;5110342;28;20100;-76
2022/08/26 09:25:26;;;;;;;12.65;3.88;;;;;;;24.42;60.63;92838.34;5110425;28;20089;-75
2022/08/26 09:27:53;;;;;;;17.23;4.57;;;;;;;24.37;58.71;92843.72;5110521;28;20062;-76
2022/08/26 09:30:25;;;;;;;14.43;4.47;;;;;;;24.54;59.51;92835.88;5110357;28;20453;-75
2022/08/26 09:32:59;;;;;;;13.93;3.95;;;;;;;24.92;54.61;92841.66;5110114;28;20586;-76
2022/08/26 09:35:30;;;;;;;11.88;3.88;;;;;;;25.07;54.19;92837.78;5110013;28;20040;-76
2022/08/26 09:37:58;;;;;;;10.02;4.22;;;;;;;25.16;55.11;92828.06;5110436;28;20071;-76
2022/08/26 09:40:30;;;;;;;11.77;4.22;;;;;;;25.15;54.22;92836.25;5105811;28;20131;-75
2022/08/26 09:43:14;;;;;;;11.73;5.65;;;;;;;25.22;51.92;92839.16;5096576;28;20089;-75
2022/08/26 09:45:45;;;;;;;16.80;7.30;;;;;;;25.49;51.82;92839.91;5108602;28;20046;-76
2022/08/26 09:48:24;;;;;;;14.50;5.07;;;;;;;25.53;50.35;92832.16;5109853;28;20047;-76
2022/08/26 09:50:55;;;;;;;13.43;5.15;;;;;;;25.65;50.54;92840.22;5109583;28;20058;-76
2022/08/26 09:53:25;;;;;;;14.15;4.40;;;;;;;25.79;50.29;92826.88;5109781;28;20062;-76
2022/08/26 09:56:12;;;;;;;17.05;5.40;;;;;;;26.06;51.37;92829.41;5109829;28;20396;-76
2022/08/26 09:58:40;;;;;;;10.43;5.43;;;;;;;26.02;49.08;92840.56;5109527;28;20056;-76
2022/08/26 10:01:25;;;;;;;17.20;7.85;;;;;;;26.10;48.23;92828.44;5108121;28;20407;-77
2022/08/26 10:03:52;;;;;;;13.77;5.68;;;;;;;26.36;47.66;92832.06;5109851;28;20063;-77
2022/08/26 10:06:25;;;;;;;9.68;4.53;;;;;;;26.01;46.73;92825.09;5109091;28;20563;-76
2022/08/26 10:08:54;;;;;;;12.10;4.05;;;;;;;26.28;49.00;92823.91;5109693;28;20043;-77
2022/08/26 10:11:37;;;;;;;13.07;4.80;;;;;;;26.76;48.66;92823.00;5109157;28;20101;-76
2022/08/26 10:14:10;;;;;;;7.32;4.50;;;;;;;26.41;46.95;92827.41;5107062;28;20047;-77
2022/08/26 10:16:46;;;;;;;10.80;5.00;;;;;;;26.74;45.53;92819.94;5109561;28;20071;-76
2022/08/26 10:19:18;;;;;;;11.57;4.75;;;;;;;26.54;44.39;92816.94;5109574;28;20442;-76
2022/08/26 10:21:53;;;;;;;12.75;5.18;;;;;;;27.04;47.06;92833.81;5097686;28;20142;-75
2022/08/26 10:24:25;;;;;;;11.25;5.35;;;;;;;26.50;45.48;92823.94;5108979;28;20043;-76
2022/08/26 10:27:00;;;;;;;7.38;4.78;;;;;;;26.92;44.38;92815.31;5109573;28;20066;-76
2022/08/26 10:29:33;;;;;;;12.75;5.22;;;;;;;27.14;44.64;92826.59;5109252;28;20052;-76
2022/08/26 10:32:05;;;;;;;10.50;5.80;;;;;;;26.67;42.85;92830.97;5109307;28;20462;-76
2022/08/26 10:34:32;;;;;;;9.05;5.18;;;;;;;26.68;44.77;92829.88;5109202;28;20093;-76
2022/08/26 10:37:07;;;;;;;10.40;6.10;;;;;;;26.59;45.29;92827.28;5110001;28;20047;-76
2022/08/26 10:39:41;;;;;;;8.70;4.73;;;;;;;26.02;44.86;92827.41;5113384;28;20044;-77
2022/08/26 10:42:13;;;;;;;10.60;5.78;;;;;;;25.74;46.84;92817.28;5112842;28;20413;-76
2022/08/26 10:44:43;;;;;;;7.53;4.82;;;;;;;25.57;46.94;92798.94;5112837;28;20448;-75
2022/08/26 10:47:17;;;;;;;13.02;5.00;;;;;;;25.35;46.83;92826.94;5104551;28;20044;-75
2022/08/26 10:49:45;;;;;;;12.00;5.25;;;;;;;25.38;48.08;92812.41;5098932;28;20084;-74
2022/08/26 10:52:17;;;;;;;10.90;5.32;;;;;;;25.55;48.91;92807.13;5112965;28;20051;-74
2022/08/26 10:54:52;;;;;;;10.38;5.10;;;;;;;25.78;49.38;92820.06;5101836;28;20063;-74
2022/08/26 10:57:27;;;;;;;16.13;5.22;;;;;;;25.76;46.04;92819.59;5108758;28;20137;-74
2022/08/26 11:01:40;;;;;;;10.98;5.13;;;;;;;26.08;45.06;92814.84;5112418;28;20563;-74
2022/08/26 11:02:53;;;;;;;9.25;4.80;;;;;;;26.47;46.67;92812.19;5097005;28;20043;-74
2022/08/26 11:05:23;;;;;;;11.52;5.15;;;;;;;26.49;46.75;92802.13;5108404;28;20055;-75
2022/08/26 11:07:53;;;;;;;9.48;4.97;;;;;;;26.65;45.27;92804.94;5101124;28;20046;-74
2022/08/26 11:11:03;;;;;;;11.77;5.35;;;;;;;27.14;46.24;92801.03;5095441;28;20055;-75
2022/08/26 11:14:08;;;;;;;9.98;4.45;;;;;;;26.68;41.79;92809.56;5101691;28;20139;-74
2022/08/26 11:16:38;;;;;;;12.50;3.97;;;;;;;26.90;42.66;92796.38;5073366;28;20055;-74
2022/08/26 11:19:08;;;;;;;11.35;5.07;;;;;;;27.19;41.90;92814.00;5112663;28;20131;-75
2022/08/26 11:21:50;;;;;;;12.48;4.68;;;;;;;27.47;41.12;92807.38;5099618;28;20130;-75
2022/08/26 11:24:54;;;;;;;7.63;3.88;;;;;;;27.63;40.21;92793.59;5107729;28;20465;-77
2022/08/26 11:27:53;;;;;;;10.20;4.78;;;;;;;27.80;41.39;92803.16;5108311;28;20088;-75
2022/08/26 11:30:49;;;;;;;9.43;4.47;;;;;;;28.09;39.32;92799.56;5061612;28;20131;-77
2022/08/26 11:33:46;;;;;;;14.48;4.85;;;;;;;28.23;38.49;92791.31;5099971;28;20113;-77
2022/08/26 11:36:33;;;;;;;7.35;4.43;;;;;;;28.71;40.75;92792.66;5093744;28;20130;-77
2022/08/26 11:39:01;;;;;;;7.95;3.78;;;;;;;28.78;39.24;92784.94;5109143;28;20036;-77
2022/08/26 11:41:30;;;;;;;5.45;3.38;;;;;;;27.92;37.30;92795.28;5112707;28;20123;-79